createdAt,value
2023-02-08T00:00:49.463Z,6.70
2023-02-08T00:03:16.223Z,6.27
2023-02-08T00:05:42.747Z,5.50
2023-02-08T00:08:09.269Z,6.60
2023-02-08T00:10:35.819Z,6.10
2023-02-08T00:13:02.532Z,5.97
2023-02-08T00:15:29.139Z,5.30
2023-02-08T00:17:55.620Z,6.40
2023-02-08T00:20:22.196Z,6.43
2023-02-08T00:22:48.754Z,5.87
2023-02-08T00:25:15.206Z,6.70
2023-02-08T00:27:41.748Z,6.00
2023-02-08T00:30:09.267Z,5.40
2023-02-08T00:32:35.886Z,6.13
2023-02-08T00:35:02.411Z,5.23
2023-02-08T00:37:28.798Z,5.40
2023-02-08T00:39:55.265Z,5.67
2023-02-08T00:42:21.677Z,5.17
2023-02-08T00:44:48.082Z,5.40
2023-02-08T00:47:14.514Z,5.20
2023-02-08T00:49:41.228Z,5.67
2023-02-08T00:52:07.822Z,5.33
2023-02-08T00:54:34.341Z,6.37
2023-02-08T00:57:00.759Z,6.10
2023-02-08T00:59:27.839Z,5.60
2023-02-08T01:01:54.326Z,5.87
2023-02-08T01:04:20.800Z,5.37
2023-02-08T01:06:47.281Z,5.77
2023-02-08T01:09:13.792Z,5.40
2023-02-08T01:11:40.265Z,6.13
2023-02-08T01:14:06.721Z,5.43
2023-02-08T01:16:34.163Z,6.03
2023-02-08T01:19:02.798Z,6.10
2023-02-08T01:21:32.404Z,6.80
2023-02-08T01:23:59.416Z,6.00
2023-02-08T01:26:26.561Z,6.40
2023-02-08T01:28:54.430Z,6.87
2023-02-08T01:31:24.664Z,6.27
2023-02-08T01:33:51.788Z,6.37
2023-02-08T01:36:18.367Z,5.87
2023-02-08T01:38:45.516Z,6.73
2023-02-08T01:41:19.667Z,7.17
2023-02-08T01:44:27.670Z,8.23
2023-02-08T01:46:54.064Z,8.67
2023-02-08T01:49:37.772Z,7.30
2023-02-08T01:52:16.375Z,7.20
2023-02-08T01:54:51.093Z,6.67
2023-02-08T01:57:19.267Z,7.97
2023-02-08T01:59:54.261Z,10.20
2023-02-08T02:02:22.941Z,16.70
2023-02-08T02:04:52.125Z,14.73
2023-02-08T02:07:20.416Z,17.33
2023-02-08T02:10:09.123Z,13.40
2023-02-08T02:12:37.798Z,10.23
2023-02-08T02:15:05.418Z,8.33
2023-02-08T02:17:32.525Z,6.40
2023-02-08T02:20:10.735Z,7.63
2023-02-08T02:22:52.441Z,7.17
2023-02-08T02:25:58.838Z,7.70
2023-02-08T02:28:37.886Z,6.93
2023-02-08T02:31:37.494Z,7.57
2023-02-08T02:34:16.864Z,7.23
2023-02-08T02:36:52.359Z,6.83
2023-02-08T02:39:54.348Z,6.17
2023-02-08T02:42:57.210Z,6.57
2023-02-08T02:46:00.965Z,5.97
2023-02-08T02:48:36.481Z,6.37
2023-02-08T02:51:31.547Z,5.80
2023-02-08T02:54:04.577Z,6.53
2023-02-08T02:56:35.920Z,6.53
2023-02-08T02:59:08.706Z,6.67
2023-02-08T03:01:36.002Z,6.03
2023-02-08T03:04:14.110Z,6.33
2023-02-08T03:07:09.777Z,5.93
2023-02-08T03:10:07.793Z,5.90
2023-02-08T03:12:58.834Z,5.90
2023-02-08T03:16:04.487Z,6.80
2023-02-08T03:19:05.945Z,6.00
2023-02-08T03:21:43.961Z,5.77
2023-02-08T03:24:32.950Z,5.53
2023-02-08T03:27:28.566Z,5.93
2023-02-08T03:29:54.939Z,5.87
2023-02-08T03:32:47.896Z,6.10
2023-02-08T03:35:25.480Z,5.57
2023-02-08T03:38:04.290Z,7.50
2023-02-08T03:40:39.580Z,5.60
2023-02-08T03:43:16.085Z,7.17
2023-02-08T03:45:51.148Z,6.47
2023-02-08T03:48:21.836Z,6.30
2023-02-08T03:50:53.372Z,6.77
2023-02-08T03:53:22.727Z,5.87
2023-02-08T03:55:55.976Z,6.90
2023-02-08T03:58:26.991Z,6.27
2023-02-08T04:01:03.948Z,6.77
2023-02-08T04:03:32.323Z,6.27
2023-02-08T04:05:58.811Z,6.10
2023-02-08T04:08:26.015Z,6.40
2023-02-08T04:10:52.562Z,6.53
2023-02-08T04:13:19.131Z,6.87
2023-02-08T04:15:45.625Z,6.17
2023-02-08T04:18:12.767Z,6.60
2023-02-08T04:20:39.578Z,6.43
2023-02-08T04:23:06.260Z,7.30
2023-02-08T04:25:32.806Z,6.27
2023-02-08T04:27:59.920Z,6.23
2023-02-08T04:30:26.470Z,6.80
2023-02-08T04:32:52.886Z,7.20
2023-02-08T04:35:19.383Z,6.70
2023-02-08T04:37:45.949Z,7.47
2023-02-08T04:40:12.513Z,6.83
2023-02-08T04:42:39.015Z,6.73
2023-02-08T04:45:05.766Z,6.97
2023-02-08T04:47:32.210Z,7.27
2023-02-08T04:49:58.636Z,7.17
2023-02-08T04:52:25.025Z,7.47
2023-02-08T04:54:51.667Z,7.17
2023-02-08T04:57:18.179Z,7.03
2023-02-08T04:59:44.619Z,7.50
2023-02-08T05:02:11.042Z,8.23
2023-02-08T05:04:37.566Z,7.33
2023-02-08T05:07:04.053Z,8.03
2023-02-08T05:09:30.550Z,7.20
2023-02-08T05:11:57.090Z,7.97
2023-02-08T05:14:23.527Z,6.70
2023-02-08T05:16:49.950Z,7.60
2023-02-08T05:19:16.479Z,7.10
2023-02-08T05:21:43.023Z,7.40
2023-02-08T05:24:12.893Z,7.07
2023-02-08T05:26:40.396Z,7.33
2023-02-08T05:29:06.798Z,7.37
2023-02-08T05:31:33.292Z,7.17
2023-02-08T05:33:59.778Z,8.53
2023-02-08T05:36:26.936Z,7.53
2023-02-08T05:38:53.595Z,7.80
2023-02-08T05:41:20.258Z,7.47
2023-02-08T05:43:46.916Z,7.87
2023-02-08T05:46:13.420Z,7.87
2023-02-08T05:48:39.983Z,6.80
2023-02-08T05:51:07.073Z,6.43
2023-02-08T05:53:33.841Z,7.30
2023-02-08T05:56:00.469Z,7.57
2023-02-08T05:58:27.103Z,7.10
2023-02-08T06:00:53.772Z,7.70
2023-02-08T06:03:22.491Z,7.83
2023-02-08T06:05:49.124Z,7.53
2023-02-08T06:08:16.991Z,7.10
2023-02-08T06:10:43.483Z,7.10
2023-02-08T06:13:10.064Z,8.00
2023-02-08T06:15:36.497Z,7.70
2023-02-08T06:18:03.201Z,7.43
2023-02-08T06:20:29.814Z,7.10
2023-02-08T06:22:56.371Z,7.63
2023-02-08T06:25:22.960Z,7.10
2023-02-08T06:27:49.619Z,6.80
2023-02-08T06:30:16.670Z,6.37
2023-02-08T06:32:43.509Z,7.70
2023-02-08T06:35:10.299Z,6.63
2023-02-08T06:37:37.027Z,7.13
2023-02-08T06:40:04.842Z,7.10
2023-02-08T06:42:31.779Z,6.87
2023-02-08T06:44:58.967Z,6.70
2023-02-08T06:47:27.018Z,6.87
2023-02-08T06:49:53.996Z,7.40
2023-02-08T06:52:21.988Z,7.40
2023-02-08T06:54:48.667Z,6.53
2023-02-08T06:57:15.518Z,7.40
2023-02-08T06:59:42.614Z,7.73
2023-02-08T07:02:17.726Z,7.57
2023-02-08T07:04:45.602Z,20.10
2023-02-08T07:07:17.054Z,8.23
2023-02-08T07:09:44.397Z,9.10
2023-02-08T07:12:12.049Z,8.20
2023-02-08T07:14:43.568Z,8.77
2023-02-08T07:17:11.645Z,7.97
2023-02-08T07:19:38.193Z,8.83
2023-02-08T07:22:08.174Z,8.10
2023-02-08T07:24:39.289Z,7.83
2023-02-08T07:27:07.359Z,7.83
2023-02-08T07:29:34.636Z,9.27
2023-02-08T07:32:02.906Z,8.97
2023-02-08T07:34:31.155Z,11.60
2023-02-08T07:37:00.527Z,7.93
2023-02-08T07:39:27.228Z,5.60
2023-02-08T07:41:53.821Z,6.83
2023-02-08T07:44:20.476Z,6.07
2023-02-08T07:46:47.141Z,6.47
2023-02-08T07:49:13.720Z,6.53
2023-02-08T07:51:42.417Z,7.60
2023-02-08T07:54:08.940Z,7.57
2023-02-08T07:56:35.383Z,7.47
2023-02-08T07:59:01.905Z,7.80
2023-02-08T08:01:28.548Z,7.67
2023-02-08T08:03:55.196Z,8.27
2023-02-08T08:06:23.093Z,7.60
2023-02-08T08:08:49.967Z,8.10
2023-02-08T08:11:17.885Z,7.20
2023-02-08T08:13:44.416Z,8.30
2023-02-08T08:16:11.562Z,7.53
2023-02-08T08:18:38.198Z,7.43
2023-02-08T08:21:04.970Z,8.23
2023-02-08T08:23:33.200Z,7.30
2023-02-08T08:26:00.585Z,7.20
2023-02-08T08:28:27.864Z,8.63
2023-02-08T08:30:54.818Z,7.47
2023-02-08T08:33:24.315Z,8.73
2023-02-08T08:35:50.886Z,7.50
2023-02-08T08:38:17.306Z,7.40
2023-02-08T08:40:43.965Z,8.13
2023-02-08T08:43:10.510Z,8.90
2023-02-08T08:45:39.280Z,7.70
2023-02-08T08:48:06.014Z,8.17
2023-02-08T08:50:32.449Z,8.40
2023-02-08T08:52:58.878Z,6.67
2023-02-08T08:55:26.059Z,6.40
2023-02-08T08:57:53.680Z,6.70
2023-02-08T09:00:20.415Z,6.40
2023-02-08T09:02:46.949Z,6.90
2023-02-08T09:05:13.369Z,6.57
2023-02-08T09:07:39.816Z,6.27
2023-02-08T09:10:06.484Z,7.53
2023-02-08T09:12:32.986Z,6.47
2023-02-08T09:14:59.476Z,7.13
2023-02-08T09:17:25.949Z,7.23
2023-02-08T09:19:52.545Z,6.13
2023-02-08T09:22:19.953Z,7.87
2023-02-08T09:24:46.456Z,6.27
2023-02-08T09:27:12.823Z,6.43
2023-02-08T09:29:39.346Z,11.13
2023-02-08T09:32:05.762Z,7.47
2023-02-08T09:34:32.293Z,8.07
2023-02-08T09:36:58.785Z,7.00
2023-02-08T09:39:25.814Z,6.90
2023-02-08T09:42:05.498Z,6.70
2023-02-08T09:45:01.835Z,6.70
2023-02-08T09:47:36.308Z,6.37
2023-02-08T09:51:10.936Z,7.20
2023-02-08T09:53:47.341Z,7.03
2023-02-08T09:56:19.212Z,7.13
2023-02-08T09:58:49.739Z,6.90
2023-02-08T10:01:21.286Z,7.70
2023-02-08T10:03:50.514Z,4.93
2023-02-08T10:06:20.060Z,6.33
2023-02-08T10:08:49.534Z,7.60
2023-02-08T10:11:28.273Z,5.83
2023-02-08T10:14:09.338Z,6.77
2023-02-08T10:17:11.071Z,6.03
2023-02-08T10:20:03.499Z,6.90
2023-02-08T10:23:05.389Z,6.23
2023-02-08T10:25:37.778Z,7.13
2023-02-08T10:28:42.683Z,7.23
2023-02-08T10:31:24.499Z,6.07
2023-02-08T10:34:01.909Z,6.43
2023-02-08T10:36:39.550Z,6.20
2023-02-08T10:39:17.283Z,6.37
2023-02-08T10:41:45.216Z,6.67
2023-02-08T10:44:34.320Z,5.87
2023-02-08T10:47:20.776Z,5.80
2023-02-08T10:50:22.518Z,6.10
2023-02-08T10:52:49.364Z,6.43
2023-02-08T10:55:18.574Z,6.40
2023-02-08T10:57:48.396Z,6.50
2023-02-08T11:00:22.262Z,5.90
2023-02-08T11:02:52.723Z,5.90
2023-02-08T11:05:36.620Z,5.37
2023-02-08T11:08:06.208Z,5.17
2023-02-08T11:10:33.497Z,5.47
2023-02-08T11:13:01.105Z,4.83
2023-02-08T11:15:34.376Z,5.57
2023-02-08T11:18:02.928Z,5.70
2023-02-08T11:20:36.786Z,4.73
2023-02-08T11:23:05.815Z,6.20
2023-02-08T11:25:38.952Z,5.77
2023-02-08T11:28:21.745Z,5.57
2023-02-08T11:31:00.388Z,4.87
2023-02-08T11:33:28.106Z,5.73
2023-02-08T11:36:07.575Z,5.20
2023-02-08T11:38:36.821Z,6.30
2023-02-08T11:41:13.696Z,5.23
2023-02-08T11:43:40.529Z,5.70
2023-02-08T11:46:07.022Z,5.37
2023-02-08T11:48:44.444Z,5.53
2023-02-08T11:51:15.113Z,5.50
2023-02-08T11:53:48.973Z,4.40
2023-02-08T11:56:21.538Z,4.77
2023-02-08T11:59:19.225Z,4.10
2023-02-08T12:01:46.195Z,3.60
2023-02-08T12:04:17.496Z,3.77
2023-02-08T12:07:02.286Z,4.13
2023-02-08T12:09:58.637Z,5.60
2023-02-08T12:12:47.233Z,3.70
2023-02-08T12:15:57.869Z,3.80
2023-02-08T12:18:51.169Z,3.60
2023-02-08T12:21:29.577Z,3.53
2023-02-08T12:24:07.528Z,3.00
2023-02-08T12:26:37.363Z,3.67
2023-02-08T12:29:17.558Z,3.13
2023-02-08T12:31:59.298Z,3.13
2023-02-08T12:34:43.282Z,3.73
2023-02-08T12:37:46.758Z,3.10
2023-02-08T12:40:49.191Z,3.00
2023-02-08T12:43:15.603Z,3.10
2023-02-08T12:46:12.689Z,2.83
2023-02-08T12:48:53.997Z,3.07
2023-02-08T12:51:42.239Z,3.03
2023-02-08T12:54:33.609Z,3.47
2023-02-08T12:57:03.498Z,2.90
2023-02-08T12:59:46.701Z,3.27
2023-02-08T13:02:21.624Z,3.67
2023-02-08T13:04:54.141Z,3.93
2023-02-08T13:07:38.835Z,3.17
2023-02-08T13:10:26.949Z,3.50
2023-02-08T13:13:25.354Z,3.30
2023-02-08T13:15:55.113Z,2.87
2023-02-08T13:18:31.388Z,2.63
2023-02-08T13:21:06.682Z,2.83
2023-02-08T13:23:52.146Z,2.60
2023-02-08T13:26:26.485Z,3.20
2023-02-08T13:28:55.597Z,3.03
2023-02-08T13:31:34.392Z,3.23
2023-02-08T13:34:08.139Z,3.40
2023-02-08T13:36:41.503Z,3.27
2023-02-08T13:39:23.948Z,3.00
2023-02-08T13:41:54.169Z,3.33
2023-02-08T13:44:57.564Z,3.33
2023-02-08T13:47:43.689Z,3.80
2023-02-08T13:50:46.059Z,2.60
2023-02-08T13:53:36.962Z,3.20
2023-02-08T13:56:43.388Z,4.00
2023-02-08T14:02:44.271Z,3.50
2023-02-08T14:05:59.582Z,3.33
2023-02-08T14:09:30.258Z,3.53
2023-02-08T14:15:36.974Z,3.67
2023-02-08T14:18:07.066Z,3.13
2023-02-08T14:20:39.785Z,4.63
2023-02-08T14:23:28.620Z,4.30
2023-02-08T14:25:56.922Z,3.80
2023-02-08T14:28:25.344Z,4.30
2023-02-08T14:30:58.033Z,4.00
2023-02-08T14:33:40.400Z,4.57
2023-02-08T14:36:23.535Z,4.63
2023-02-08T14:39:26.160Z,3.97
2023-02-08T14:41:55.264Z,4.40
2023-02-08T14:44:43.232Z,4.30
2023-02-08T14:47:25.121Z,4.27
2023-02-08T14:50:16.177Z,3.90
2023-02-08T14:52:52.722Z,4.17
2023-02-08T14:55:27.376Z,4.73
2023-02-08T14:57:56.004Z,4.27
2023-02-08T15:00:27.060Z,4.37
2023-02-08T15:02:54.568Z,4.10
2023-02-08T15:05:27.420Z,3.87
2023-02-08T15:08:01.913Z,3.27
2023-02-08T15:10:30.446Z,3.77
2023-02-08T15:13:00.649Z,4.27
2023-02-08T15:15:34.587Z,4.03
2023-02-08T15:18:03.105Z,4.20
2023-02-08T15:20:32.006Z,4.20
2023-02-08T15:22:59.431Z,4.47
2023-02-08T15:25:30.360Z,4.10
2023-02-08T15:28:17.560Z,4.87
2023-02-08T15:30:45.300Z,4.40
2023-02-08T15:33:17.833Z,4.07
2023-02-08T15:35:45.942Z,4.97
2023-02-08T15:38:19.131Z,4.47
2023-02-08T15:41:05.610Z,4.27
2023-02-08T15:43:33.644Z,3.90
2023-02-08T15:46:02.510Z,3.77
2023-02-08T15:48:29.861Z,4.17
2023-02-08T15:50:57.474Z,4.20
2023-02-08T15:53:24.828Z,4.53
2023-02-08T15:55:57.080Z,5.17
2023-02-08T15:58:32.930Z,4.90
2023-02-08T16:01:02.363Z,4.60
2023-02-08T16:03:30.780Z,5.17
2023-02-08T16:06:00.406Z,4.93
2023-02-08T16:08:30.342Z,4.77
2023-02-08T16:11:02.746Z,5.43
2023-02-08T16:13:33.442Z,4.60
2023-02-08T16:16:20.076Z,5.67
2023-02-08T16:18:49.986Z,5.57
2023-02-08T16:21:27.061Z,6.03
2023-02-08T16:23:59.387Z,5.97
2023-02-08T16:26:29.217Z,8.50
2023-02-08T16:28:59.109Z,6.23
2023-02-08T16:31:30.160Z,6.07
2023-02-08T16:33:59.477Z,5.20
2023-02-08T16:36:32.462Z,6.00
2023-02-08T16:39:14.144Z,6.00
2023-02-08T16:41:53.071Z,5.70
2023-02-08T16:44:31.283Z,5.70
2023-02-08T16:46:59.014Z,6.63
2023-02-08T16:49:25.778Z,5.67
2023-02-08T16:52:01.334Z,5.97
2023-02-08T16:54:28.547Z,6.00
2023-02-08T16:56:59.962Z,5.87
2023-02-08T16:59:29.181Z,5.37
2023-02-08T17:01:56.513Z,5.57
2023-02-08T17:04:26.543Z,6.60
2023-02-08T17:06:53.959Z,4.95
2023-02-08T17:09:20.437Z,5.97
2023-02-08T17:11:47.005Z,7.33
2023-02-08T17:14:13.533Z,6.43
2023-02-08T17:16:40.248Z,5.83
2023-02-08T17:19:07.049Z,6.30
2023-02-08T17:21:33.564Z,6.93
2023-02-08T17:24:01.420Z,7.70
2023-02-08T17:26:32.028Z,6.90
2023-02-08T17:28:59.226Z,7.57
2023-02-08T17:31:28.998Z,5.60
2023-02-08T17:33:58.283Z,6.90
2023-02-08T17:36:24.777Z,7.07
2023-02-08T17:38:52.203Z,6.90
2023-02-08T17:41:20.388Z,7.50
2023-02-08T17:43:52.043Z,6.50
2023-02-08T17:46:24.413Z,6.33
2023-02-08T17:48:51.316Z,5.93
2023-02-08T17:51:20.365Z,5.10
2023-02-08T17:53:47.814Z,6.07
2023-02-08T17:56:16.866Z,5.83
2023-02-08T17:58:44.107Z,7.23
2023-02-08T18:01:19.000Z,7.07
2023-02-08T18:03:47.288Z,6.30
2023-02-08T18:06:14.291Z,6.23
2023-02-08T18:08:41.681Z,6.13
2023-02-08T18:11:19.559Z,6.30
2023-02-08T18:13:47.772Z,5.60
2023-02-08T18:16:23.871Z,5.80
2023-02-08T18:18:50.858Z,6.53
2023-02-08T18:21:20.547Z,5.50
2023-02-08T18:23:49.470Z,6.90
2023-02-08T18:26:19.575Z,7.10
2023-02-08T18:28:46.565Z,7.43
2023-02-08T18:31:17.385Z,6.53
2023-02-08T18:33:44.222Z,6.73
2023-02-08T18:36:11.616Z,7.67
2023-02-08T18:38:46.122Z,7.37
2023-02-08T18:41:15.943Z,7.37
2023-02-08T18:43:42.845Z,7.50
2023-02-08T18:46:11.750Z,6.97
2023-02-08T18:48:39.508Z,6.60
2023-02-08T18:51:08.336Z,6.57
2023-02-08T18:53:36.962Z,7.07
2023-02-08T18:56:05.649Z,7.93
2023-02-08T18:58:32.867Z,7.00
2023-02-08T19:01:11.204Z,7.17
2023-02-08T19:03:38.537Z,7.17
2023-02-08T19:06:14.788Z,6.97
2023-02-08T19:08:43.127Z,7.13
2023-02-08T19:11:22.433Z,7.73
2023-02-08T19:13:50.159Z,6.73
2023-02-08T19:16:18.520Z,7.73
2023-02-08T19:18:45.745Z,8.20
2023-02-08T19:21:15.157Z,7.80
2023-02-08T19:23:41.893Z,6.97
2023-02-08T19:26:15.892Z,7.87
2023-02-08T19:28:42.509Z,7.97
2023-02-08T19:31:18.045Z,7.63
2023-02-08T19:33:48.090Z,8.50
2023-02-08T19:36:20.847Z,8.03
2023-02-08T19:38:48.356Z,7.97
2023-02-08T19:41:20.651Z,8.30
2023-02-08T19:43:47.880Z,8.90
2023-02-08T19:46:16.990Z,7.50
2023-02-08T19:48:43.510Z,8.77
2023-02-08T19:51:10.062Z,8.27
2023-02-08T19:53:36.795Z,8.83
2023-02-08T19:56:07.317Z,8.23
2023-02-08T19:58:35.061Z,8.50
2023-02-08T20:01:09.430Z,8.47
2023-02-08T20:03:36.560Z,8.13
2023-02-08T20:06:03.587Z,8.13
2023-02-08T20:08:30.123Z,8.17
2023-02-08T20:10:56.684Z,8.03
2023-02-08T20:13:23.770Z,8.47
2023-02-08T20:15:50.444Z,9.37
2023-02-08T20:18:17.209Z,10.57
2023-02-08T20:20:45.523Z,14.77
2023-02-08T20:23:22.567Z,9.63
2023-02-08T20:25:49.457Z,8.90
2023-02-08T20:28:16.005Z,8.27
2023-02-08T20:30:42.560Z,8.67
2023-02-08T20:33:09.019Z,8.63
2023-02-08T20:35:36.410Z,9.67
2023-02-08T20:38:02.942Z,9.20
2023-02-08T20:40:29.370Z,9.57
2023-02-08T20:42:55.749Z,9.80
2023-02-08T20:45:22.464Z,8.57
2023-02-08T20:47:48.953Z,8.83
2023-02-08T20:50:19.233Z,9.07
2023-02-08T20:52:47.297Z,9.83
2023-02-08T20:55:13.819Z,8.03
2023-02-08T20:57:40.339Z,8.73
2023-02-08T21:00:07.253Z,8.00
2023-02-08T21:02:33.702Z,8.47
2023-02-08T21:05:00.269Z,8.63
2023-02-08T21:07:26.677Z,8.77
2023-02-08T21:09:53.078Z,9.67
2023-02-08T21:12:19.595Z,8.20
2023-02-08T21:14:46.146Z,9.17
2023-02-08T21:17:12.605Z,9.17
2023-02-08T21:19:39.642Z,8.80
2023-02-08T21:22:06.431Z,9.27
2023-02-08T21:24:33.111Z,8.33
2023-02-08T21:27:00.216Z,9.23
2023-02-08T21:29:26.853Z,9.40
2023-02-08T21:31:54.657Z,8.80
2023-02-08T21:34:21.624Z,9.27
2023-02-08T21:36:48.338Z,9.47
2023-02-08T21:39:14.946Z,8.43
2023-02-08T21:41:41.687Z,8.33
2023-02-08T21:44:09.309Z,9.40
2023-02-08T21:46:36.485Z,9.43
2023-02-08T21:49:21.543Z,9.17
2023-02-08T21:52:06.420Z,8.60
2023-02-08T21:54:46.649Z,9.50
2023-02-08T21:57:26.507Z,8.73
2023-02-08T21:59:56.865Z,9.03
2023-02-08T22:02:26.130Z,10.37
2023-02-08T22:04:54.368Z,9.20
2023-02-08T22:07:21.447Z,9.37
2023-02-08T22:09:48.072Z,9.57
2023-02-08T22:12:16.136Z,8.53
2023-02-08T22:14:42.982Z,8.43
2023-02-08T22:17:10.571Z,9.33
2023-02-08T22:19:38.894Z,9.47
2023-02-08T22:22:05.808Z,13.27
2023-02-08T22:24:34.051Z,15.40
2023-02-08T22:27:01.020Z,12.77
2023-02-08T22:29:27.580Z,10.03
2023-02-08T22:31:54.219Z,10.97
2023-02-08T22:34:20.968Z,10.93
2023-02-08T22:36:47.502Z,11.27
2023-02-08T22:39:14.155Z,9.37
2023-02-08T22:41:40.741Z,9.07
2023-02-08T22:44:07.230Z,9.77
2023-02-08T22:46:33.835Z,9.30
2023-02-08T22:49:00.454Z,9.40
2023-02-08T22:51:27.148Z,8.37
2023-02-08T22:53:55.628Z,8.70
2023-02-08T22:56:22.243Z,8.57
2023-02-08T22:58:48.838Z,9.30
2023-02-08T23:01:17.088Z,8.63
2023-02-08T23:03:44.061Z,9.87
2023-02-08T23:06:14.560Z,8.20
2023-02-08T23:08:41.161Z,9.60
2023-02-08T23:11:07.976Z,10.13
2023-02-08T23:13:35.147Z,10.00
2023-02-08T23:16:02.065Z,9.50
2023-02-08T23:18:28.737Z,9.97
2023-02-08T23:20:55.341Z,9.23
2023-02-08T23:23:22.198Z,9.77
2023-02-08T23:25:49.079Z,8.23
2023-02-08T23:28:15.960Z,11.17
2023-02-08T23:30:43.572Z,9.33
2023-02-08T23:33:10.372Z,9.23
2023-02-08T23:35:41.161Z,9.63
2023-02-08T23:38:08.882Z,9.33
2023-02-08T23:40:35.468Z,8.37
2023-02-08T23:43:02.113Z,9.90
2023-02-08T23:45:28.821Z,9.40
2023-02-08T23:47:55.344Z,9.80
2023-02-08T23:50:21.935Z,8.90
2023-02-08T23:52:48.561Z,8.43
2023-02-08T23:55:15.140Z,8.60
2023-02-08T23:57:41.755Z,9.47
